ICAO code: LHPR | IATA code: QGY | AFTN: LHPRZPZX | magyar | english
Wetter: 2018-07-16 04:40 (UTC) | Temperatur: 15.6 °C | QNH: 1013.8 hPa | Wind: 1.5 m/s | Mehr dazu
Live ATC LHPR
Webcam life

Győr-Pér Airport Meteor data

Metar:
METAR LHPR 152145Z AUTO 00000KT CAVOK 16/14 Q1014 RMK BL


Taf:
TAF LHPR 152000Z NIL


Actual Wetter:
Cloud development not observed or observable
Date stamp: 2018-07-16 04:40:00 UTC
Air Temp:
15.6 °C
 
Dewpoint:
14.6 °C
 
Rel. Humidity:
94%
 
QNH:
1013.8 hPa
 
Wind speed:
1.5 m/s
Max:
1.6 m/s
Wind direction:
260°
 
Precipitation (1 hour):
0.0 mm
 
Visibility:
14309 m
 
RVR:
>1500 m RWY30
 
1st cloud layer quantity:
0 octa
 
1st cloud layer base:
m


Az adatokat szolgáltatja
az Országos Meteorológiai Szolgálat
Flughafen Győr-Pér | H 9099 Pér, Repülőtér | Tel: +36/96/559-200 | Fax: +36/96/559-202

ICAO code: LHPR | IATA code: QGY | AFTN: LHPRZPZX


weboldal tervezés: IRQ